Time;durP1;ratioP1;P1;durP2;ratioP2;P2;SDS_P1;SDS_P2;PMS_P1;PMS_P2;Temp;Humidity;BMP_temperature;BMP_pressure;BME280_temperature;BME280_humidity;BME280_pressure;Samples;Min_cycle;Max_cycle;Signal;HPM_P1;HPM_P2
2024/01/05 00:00:47;;;;;;;1.30;0.80;;;21.20;41.20;;;;;;5001355;28;20026;-64
2024/01/05 00:03:13;;;;;;;2.35;0.88;;;21.20;41.20;;;;;;5007880;28;20034;-62
2024/01/05 00:05:42;;;;;;;2.75;1.05;;;21.20;41.30;;;;;;5004985;28;20022;-64
2024/01/05 00:08:07;;;;;;;3.47;1.13;;;21.20;41.30;;;;;;5002914;28;20581;-63
2024/01/05 00:10:33;;;;;;;1.75;1.00;;;21.20;41.30;;;;;;5005068;28;20041;-63
2024/01/05 00:12:59;;;;;;;2.28;1.10;;;21.20;41.30;;;;;;5008201;28;20049;-64
2024/01/05 00:15:25;;;;;;;2.63;1.20;;;21.20;41.40;;;;;;5004681;28;20117;-63
2024/01/05 00:17:51;;;;;;;2.42;0.77;;;21.20;41.40;;;;;;5004833;28;20078;-63
2024/01/05 00:20:16;;;;;;;1.77;0.93;;;21.20;41.40;;;;;;5000927;28;20029;-63
2024/01/05 00:22:42;;;;;;;2.78;1.20;;;21.10;41.40;;;;;;5002914;28;20353;-63
2024/01/05 00:25:08;;;;;;;2.10;1.10;;;21.10;41.40;;;;;;4997986;28;20038;-63
2024/01/05 00:27:34;;;;;;;2.33;1.00;;;21.10;41.40;;;;;;5010089;28;20108;-63
2024/01/05 00:30:00;;;;;;;6.70;1.38;;;21.10;41.40;;;;;;5006866;28;20030;-62
2024/01/05 00:32:26;;;;;;;2.40;0.90;;;21.10;41.40;;;;;;5008809;28;20133;-63
2024/01/05 00:34:51;;;;;;;3.63;1.40;;;21.10;41.40;;;;;;5008499;28;20041;-63
2024/01/05 00:37:17;;;;;;;3.33;1.38;;;21.10;41.40;;;;;;5005575;28;20030;-63
2024/01/05 00:39:44;;;;;;;2.95;1.17;;;21.10;41.50;;;;;;5011127;28;20030;-64
2024/01/05 00:42:10;;;;;;;2.97;1.15;;;21.10;41.50;;;;;;5003517;28;20484;-63
2024/01/05 00:44:36;;;;;;;2.05;0.90;;;21.10;41.50;;;;;;5004370;28;20135;-63
2024/01/05 00:47:02;;;;;;;2.22;1.30;;;21.10;41.50;;;;;;5004415;28;20104;-63
2024/01/05 00:49:27;;;;;;;1.73;0.95;;;21.10;41.60;;;;;;5005577;28;20088;-63
2024/01/05 00:51:53;;;;;;;3.40;1.25;;;21.10;41.60;;;;;;5005093;28;20504;-63
2024/01/05 00:54:19;;;;;;;2.33;1.02;;;21.10;41.60;;;;;;5007090;28;20038;-63
2024/01/05 00:56:46;;;;;;;2.30;1.00;;;21.10;41.60;;;;;;4997296;28;20105;-63
2024/01/05 00:59:12;;;;;;;2.00;1.13;;;21.10;41.70;;;;;;5007650;28;20034;-63
2024/01/05 01:01:38;;;;;;;3.08;1.10;;;21.00;41.60;;;;;;5001247;28;20022;-63
2024/01/05 01:04:03;;;;;;;3.78;1.17;;;21.10;41.70;;;;;;5005397;28;20034;-63
2024/01/05 01:06:29;;;;;;;2.90;1.10;;;21.00;41.70;;;;;;5006987;28;20388;-64
2024/01/05 01:08:55;;;;;;;3.38;1.40;;;21.00;41.70;;;;;;5007090;28;20408;-62
2024/01/05 01:11:22;;;;;;;2.45;1.00;;;21.00;41.70;;;;;;5005537;28;20065;-62
2024/01/05 01:13:48;;;;;;;2.28;1.20;;;21.00;41.70;;;;;;5002662;28;20124;-63
2024/01/05 01:16:14;;;;;;;3.15;1.00;;;21.00;41.80;;;;;;5003635;28;21531;-62
2024/01/05 01:18:40;;;;;;;2.40;1.00;;;21.00;41.80;;;;;;5003294;28;20026;-63
2024/01/05 01:21:06;;;;;;;2.70;1.00;;;21.00;41.80;;;;;;5001794;28;20054;-62
2024/01/05 01:23:33;;;;;;;2.42;0.98;;;21.00;41.80;;;;;;5007104;28;20455;-63
2024/01/05 01:25:59;;;;;;;2.60;0.95;;;21.00;41.80;;;;;;4984823;28;20362;-62
2024/01/05 01:28:24;;;;;;;3.20;1.10;;;21.00;41.80;;;;;;5003472;28;20022;-63
2024/01/05 01:30:50;;;;;;;2.92;1.20;;;21.00;41.80;;;;;;4999554;28;20189;-63
2024/01/05 01:33:16;;;;;;;3.80;0.95;;;21.00;41.90;;;;;;5004131;28;20037;-64
2024/01/05 01:35:43;;;;;;;2.42;0.98;;;21.00;41.90;;;;;;5001501;28;20377;-62
2024/01/05 01:38:09;;;;;;;2.45;1.10;;;21.00;41.90;;;;;;5004685;28;20034;-63
2024/01/05 01:40:34;;;;;;;2.13;0.80;;;21.00;41.90;;;;;;5000879;28;20140;-62
2024/01/05 01:43:00;;;;;;;2.47;0.90;;;21.00;41.90;;;;;;5003128;28;20438;-64
2024/01/05 01:45:26;;;;;;;2.42;0.90;;;21.00;41.90;;;;;;5006365;28;20034;-55
2024/01/05 01:47:52;;;;;;;1.65;0.80;;;20.90;41.80;;;;;;5011385;28;20060;-62
2024/01/05 01:50:19;;;;;;;1.33;0.82;;;20.90;41.80;;;;;;5007457;28;20052;-63
2024/01/05 01:52:46;;;;;;;2.72;1.00;;;20.90;41.80;;;;;;5006082;28;20026;-63
2024/01/05 01:55:14;;;;;;;2.15;1.02;;;20.90;41.80;;;;;;5000608;28;20037;-62
2024/01/05 01:57:40;;;;;;;2.58;1.00;;;20.90;41.80;;;;;;5004003;28;20027;-62
2024/01/05 02:00:07;;;;;;;3.50;1.10;;;20.90;41.90;;;;;;5002662;28;20041;-62
2024/01/05 02:02:34;;;;;;;2.15;1.00;;;20.90;41.80;;;;;;5004401;28;20465;-62
2024/01/05 02:05:00;;;;;;;1.90;1.00;;;20.90;41.80;;;;;;5003270;28;20088;-62
2024/01/05 02:07:26;;;;;;;2.55;1.30;;;20.90;41.80;;;;;;5005602;28;20018;-63
2024/01/05 02:09:52;;;;;;;2.05;0.95;;;20.90;41.80;;;;;;5005872;28;20041;-63
2024/01/05 02:12:18;;;;;;;1.95;1.05;;;20.90;41.80;;;;;;5003970;28;20046;-63
2024/01/05 02:14:44;;;;;;;3.13;1.10;;;20.90;41.80;;;;;;5003909;28;20129;-63
2024/01/05 02:17:30;;;;;;;2.08;0.88;;;20.90;41.90;;;;;;5001799;28;20038;-62
2024/01/05 02:19:58;;;;;;;1.38;0.77;;;20.90;41.80;;;;;;5006473;28;20105;-63
2024/01/05 02:22:28;;;;;;;2.85;1.10;;;20.90;41.90;;;;;;5000316;28;20341;-62
2024/01/05 02:24:54;;;;;;;1.95;0.95;;;20.90;41.90;;;;;;5004691;28;20345;-63
2024/01/05 02:27:20;;;;;;;2.88;1.10;;;20.90;41.90;;;;;;5004551;28;20033;-62
2024/01/05 02:29:45;;;;;;;2.17;1.00;;;20.90;41.90;;;;;;5004678;28;20033;-62
2024/01/05 02:32:11;;;;;;;1.75;0.80;;;20.90;42.00;;;;;;5003050;28;20037;-62
2024/01/05 02:34:37;;;;;;;2.42;0.85;;;20.90;42.00;;;;;;5001559;28;20065;-63
2024/01/05 02:37:03;;;;;;;1.98;0.90;;;20.90;42.00;;;;;;5003410;28;20030;-62
2024/01/05 02:39:28;;;;;;;3.05;1.13;;;20.90;42.00;;;;;;5003169;28;20087;-63
2024/01/05 02:41:54;;;;;;;3.20;1.02;;;20.90;42.10;;;;;;5004137;28;20143;-63
2024/01/05 02:44:20;;;;;;;1.45;0.80;;;20.90;42.10;;;;;;5006874;28;20026;-63
2024/01/05 02:46:46;;;;;;;2.15;0.70;;;20.90;42.10;;;;;;5009049;28;20029;-63
2024/01/05 02:49:11;;;;;;;2.08;1.00;;;20.80;42.10;;;;;;5003517;28;20109;-63
2024/01/05 02:51:39;;;;;;;1.95;0.80;;;20.80;42.10;;;;;;5005791;28;20056;-64
2024/01/05 02:54:05;;;;;;;2.42;0.98;;;20.80;42.10;;;;;;4999230;28;20045;-63
2024/01/05 02:56:33;;;;;;;2.72;0.82;;;20.80;42.10;;;;;;4999261;28;20038;-63
2024/01/05 02:58:59;;;;;;;2.65;1.02;;;20.80;42.20;;;;;;5003093;28;20022;-62
2024/01/05 03:01:25;;;;;;;2.17;0.77;;;20.80;42.20;;;;;;5006453;28;20337;-63
2024/01/05 03:03:51;;;;;;;2.88;0.90;;;20.80;42.20;;;;;;5005896;28;20041;-64
2024/01/05 03:06:18;;;;;;;1.55;0.77;;;20.80;42.20;;;;;;5003958;28;20026;-63
2024/01/05 03:08:45;;;;;;;2.80;0.95;;;20.80;42.20;;;;;;5006467;28;20353;-63
2024/01/05 03:11:11;;;;;;;1.83;0.80;;;20.80;42.20;;;;;;5011366;28;20039;-62
2024/01/05 03:13:37;;;;;;;1.67;0.70;;;20.80;42.20;;;;;;5009000;28;20038;-63
2024/01/05 03:16:04;;;;;;;2.40;1.08;;;20.80;42.30;;;;;;5007304;28;20036;-62
2024/01/05 03:18:30;;;;;;;1.73;0.70;;;20.80;42.30;;;;;;5008532;28;20034;-62
2024/01/05 03:20:56;;;;;;;2.63;0.93;;;20.80;42.30;;;;;;5006846;28;20053;-63
2024/01/05 03:23:22;;;;;;;1.58;0.77;;;20.80;42.30;;;;;;5012384;28;20026;-62
2024/01/05 03:25:48;;;;;;;2.10;0.82;;;20.80;42.30;;;;;;5010098;28;20072;-63
2024/01/05 03:28:14;;;;;;;2.47;1.02;;;20.80;42.30;;;;;;5006610;28;20026;-63
2024/01/05 03:30:42;;;;;;;1.75;0.70;;;20.80;42.30;;;;;;5016825;28;20026;-64
2024/01/05 03:33:09;;;;;;;1.27;0.70;;;20.80;42.30;;;;;;5011245;28;20037;-63
2024/01/05 03:35:37;;;;;;;1.63;0.65;;;20.80;42.30;;;;;;5013140;28;20053;-63
2024/01/05 03:38:03;;;;;;;1.55;0.80;;;20.80;42.30;;;;;;5008840;28;20037;-63
2024/01/05 03:40:28;;;;;;;3.08;0.93;;;20.70;42.30;;;;;;5003113;28;20369;-64
2024/01/05 03:42:55;;;;;;;2.25;0.70;;;20.80;42.30;;;;;;5009490;28;20026;-64
2024/01/05 03:45:21;;;;;;;1.20;0.57;;;20.80;42.30;;;;;;5011621;28;20109;-63
2024/01/05 03:47:46;;;;;;;1.73;0.80;;;20.80;42.30;;;;;;5010159;28;20118;-63
2024/01/05 03:50:12;;;;;;;1.52;0.80;;;20.80;42.30;;;;;;5015443;28;20030;-62
2024/01/05 03:52:38;;;;;;;1.65;0.65;;;20.80;42.30;;;;;;5008955;28;20038;-63
2024/01/05 03:55:04;;;;;;;1.55;0.70;;;20.70;42.30;;;;;;5003152;28;20035;-62
2024/01/05 03:57:30;;;;;;;1.40;0.70;;;20.70;42.30;;;;;;5004982;28;20026;-62
2024/01/05 03:59:56;;;;;;;1.50;0.77;;;20.70;42.30;;;;;;5012870;28;20036;-63
2024/01/05 04:02:22;;;;;;;1.05;0.50;;;20.70;42.30;;;;;;5007329;28;20416;-63
2024/01/05 04:04:47;;;;;;;1.98;0.60;;;20.70;42.30;;;;;;5015315;28;20034;-63
2024/01/05 04:07:13;;;;;;;1.45;0.70;;;20.70;42.30;;;;;;5008678;28;20080;-62
2024/01/05 04:09:39;;;;;;;1.30;0.55;;;20.70;42.30;;;;;;5011541;28;20023;-62
2024/01/05 04:12:06;;;;;;;1.08;0.60;;;20.70;42.30;;;;;;5011129;28;20046;-63
2024/01/05 04:14:32;;;;;;;2.17;0.80;;;20.70;42.30;;;;;;5007962;28;20037;-63
2024/01/05 04:16:58;;;;;;;1.38;0.70;;;20.70;42.30;;;;;;5005735;28;20031;-63
2024/01/05 04:19:24;;;;;;;1.65;0.80;;;20.70;42.30;;;;;;5009494;28;20053;-63
2024/01/05 04:21:50;;;;;;;1.40;0.65;;;20.70;42.30;;;;;;5007886;28;20338;-62
2024/01/05 04:24:15;;;;;;;1.92;0.70;;;20.70;42.20;;;;;;5005917;28;20029;-63
2024/01/05 04:26:41;;;;;;;2.65;0.80;;;20.60;42.20;;;;;;5006343;28;20469;-63
2024/01/05 04:29:07;;;;;;;1.83;0.70;;;20.70;42.20;;;;;;5007139;28;20117;-63
2024/01/05 04:31:33;;;;;;;3.13;0.95;;;20.70;42.20;;;;;;5006402;28;20030;-64
2024/01/05 04:33:58;;;;;;;2.78;0.90;;;20.60;42.20;;;;;;5002752;28;20076;-63
2024/01/05 04:36:24;;;;;;;1.88;0.70;;;20.60;42.20;;;;;;5005883;28;20315;-63
2024/01/05 04:38:50;;;;;;;1.92;0.80;;;20.70;42.20;;;;;;5007702;28;20040;-63
2024/01/05 04:41:16;;;;;;;3.47;0.70;;;20.70;42.20;;;;;;5000970;28;20405;-62
2024/01/05 04:43:43;;;;;;;1.73;0.70;;;20.70;42.20;;;;;;5004338;28;20022;-63
2024/01/05 04:46:09;;;;;;;0.50;0.50;;;20.60;42.20;;;;;;5007543;28;20104;-62
2024/01/05 04:48:35;;;;;;;1.08;0.40;;;20.70;42.20;;;;;;5004255;28;20030;-63
2024/01/05 04:51:02;;;;;;;1.83;0.90;;;20.60;42.20;;;;;;5006171;28;20030;-63
2024/01/05 04:53:27;;;;;;;1.73;0.50;;;20.60;42.10;;;;;;5005685;28;20049;-63
2024/01/05 04:55:53;;;;;;;1.30;0.50;;;20.70;42.20;;;;;;4999181;28;20349;-63
2024/01/05 04:58:19;;;;;;;2.00;0.75;;;20.60;42.10;;;;;;5002783;28;20022;-63
2024/01/05 05:00:45;;;;;;;1.88;0.80;;;20.60;42.10;;;;;;5006184;28;20409;-63
2024/01/05 05:03:13;;;;;;;1.85;0.60;;;20.60;42.10;;;;;;5009472;28;20196;-64
2024/01/05 05:05:40;;;;;;;2.33;0.75;;;20.60;42.10;;;;;;5002852;28;20023;-62
2024/01/05 05:08:10;;;;;;;1.60;0.60;;;20.60;42.10;;;;;;5000726;28;20030;-62
2024/01/05 05:10:39;;;;;;;1.63;0.70;;;20.60;42.10;;;;;;4998675;28;20026;-63
2024/01/05 05:13:05;;;;;;;1.52;0.60;;;20.60;42.10;;;;;;5001882;28;20033;-63
2024/01/05 05:15:31;;;;;;;0.70;0.50;;;20.60;42.00;;;;;;5005678;28;20022;-63
2024/01/05 05:17:57;;;;;;;1.55;0.60;;;20.60;42.00;;;;;;5003470;28;20026;-62
2024/01/05 05:20:22;;;;;;;1.55;0.50;;;20.60;42.00;;;;;;5011403;28;20022;-62
2024/01/05 05:22:48;;;;;;;1.42;0.50;;;20.60;42.00;;;;;;5006602;28;20030;-63
2024/01/05 05:25:14;;;;;;;0.98;0.40;;;20.60;42.00;;;;;;5003271;28;20022;-63
2024/01/05 05:27:40;;;;;;;1.42;0.43;;;20.60;42.00;;;;;;5006805;28;20553;-64
2024/01/05 05:30:07;;;;;;;1.33;0.50;;;20.50;41.90;;;;;;4999879;28;20441;-62
2024/01/05 05:32:33;;;;;;;1.67;0.70;;;20.60;42.00;;;;;;5003981;28;20018;-62
2024/01/05 05:34:59;;;;;;;1.48;0.60;;;20.60;42.00;;;;;;5003781;28;20108;-63
2024/01/05 05:37:25;;;;;;;2.75;0.70;;;20.60;42.00;;;;;;5002807;28;20018;-64
2024/01/05 05:39:52;;;;;;;2.30;0.77;;;20.60;41.90;;;;;;5003603;28;20096;-62
2024/01/05 05:42:17;;;;;;;1.83;0.80;;;20.60;41.90;;;;;;5007688;28;20512;-63
2024/01/05 05:44:43;;;;;;;1.85;0.60;;;20.50;41.90;;;;;;5003815;28;20097;-62
2024/01/05 05:47:09;;;;;;;1.27;0.57;;;20.60;41.90;;;;;;5002015;28;20512;-63
2024/01/05 05:49:35;;;;;;;1.10;0.40;;;20.50;41.90;;;;;;5005120;28;20052;-63
2024/01/05 05:52:01;;;;;;;0.90;0.60;;;20.50;41.90;;;;;;5002676;28;20026;-62
2024/01/05 05:54:26;;;;;;;1.88;0.65;;;20.50;42.50;;;;;;4999508;28;20034;-63
2024/01/05 05:56:52;;;;;;;1.15;0.60;;;20.50;41.90;;;;;;5005005;28;20484;-62
2024/01/05 05:59:18;;;;;;;1.42;0.50;;;20.50;41.90;;;;;;5005180;28;20361;-62
2024/01/05 06:01:44;;;;;;;1.17;0.55;;;20.50;41.80;;;;;;5002316;28;20041;-63
2024/01/05 06:04:10;;;;;;;1.30;0.70;;;20.50;41.80;;;;;;5006264;28;20033;-63
2024/01/05 06:06:36;;;;;;;1.40;0.65;;;20.50;41.80;;;;;;5003919;28;20416;-62
2024/01/05 06:09:02;;;;;;;2.35;0.88;;;20.50;41.80;;;;;;4999593;28;20026;-62
2024/01/05 06:11:28;;;;;;;1.27;0.60;;;20.50;41.80;;;;;;5002006;28;20050;-62
2024/01/05 06:13:57;;;;;;;1.48;0.55;;;20.50;41.80;;;;;;5003690;28;20030;-63
2024/01/05 06:16:23;;;;;;;1.42;0.63;;;20.50;41.80;;;;;;5001170;28;20018;-62
2024/01/05 06:18:49;;;;;;;1.40;0.60;;;20.50;41.80;;;;;;5004065;28;20018;-62
2024/01/05 06:21:14;;;;;;;1.17;0.52;;;20.50;41.80;;;;;;5005583;28;20025;-62
2024/01/05 06:23:40;;;;;;;1.17;0.40;;;20.50;41.80;;;;;;5010398;28;20353;-62
2024/01/05 06:26:06;;;;;;;1.25;0.40;;;20.50;41.80;;;;;;5000535;28;20030;-65
2024/01/05 06:28:32;;;;;;;1.13;0.63;;;20.50;41.80;;;;;;5003320;28;20026;-63
2024/01/05 06:30:58;;;;;;;2.22;0.35;;;20.50;41.70;;;;;;5001481;28;20034;-62
2024/01/05 06:33:24;;;;;;;0.88;0.47;;;20.40;41.70;;;;;;4994945;28;20037;-62
2024/01/05 06:35:49;;;;;;;1.45;0.47;;;20.50;41.80;;;;;;4996104;28;20030;-63
2024/01/05 06:38:15;;;;;;;1.13;0.60;;;20.50;41.80;;;;;;5004582;28;20026;-64
2024/01/05 06:40:41;;;;;;;1.35;0.50;;;20.50;41.80;;;;;;5003821;28;20030;-63
2024/01/05 06:43:07;;;;;;;1.15;0.47;;;20.50;41.80;;;;;;4999734;28;20033;-63
2024/01/05 06:45:33;;;;;;;1.60;0.60;;;20.50;41.80;;;;;;5005453;28;20026;-64
2024/01/05 06:47:58;;;;;;;1.30;0.43;;;20.50;41.70;;;;;;5007699;28;20030;-62
2024/01/05 06:50:24;;;;;;;1.58;0.50;;;20.50;41.70;;;;;;5001103;28;20520;-62
2024/01/05 06:52:50;;;;;;;1.42;0.50;;;20.40;41.60;;;;;;5003640;28;20092;-62
2024/01/05 06:55:16;;;;;;;0.95;0.40;;;20.50;41.70;;;;;;4999842;28;20064;-63
2024/01/05 06:57:42;;;;;;;1.02;0.40;;;20.40;41.60;;;;;;5007415;28;20054;-64
2024/01/05 07:00:10;;;;;;;0.63;0.45;;;20.50;41.70;;;;;;5003869;28;20121;-64
2024/01/05 07:02:36;;;;;;;1.00;0.43;;;20.40;41.60;;;;;;5000166;28;20059;-63
2024/01/05 07:05:03;;;;;;;1.88;0.52;;;20.50;41.70;;;;;;4998914;28;20030;-62
2024/01/05 07:07:30;;;;;;;0.85;0.40;;;20.40;41.60;;;;;;4997290;28;20097;-62
2024/01/05 07:09:56;;;;;;;0.55;0.30;;;20.50;41.60;;;;;;5005937;28;20029;-62
2024/01/05 07:12:22;;;;;;;1.48;0.50;;;20.40;41.50;;;;;;5004373;28;20070;-63
2024/01/05 07:14:48;;;;;;;0.98;0.40;;;20.40;41.60;;;;;;5000196;28;20061;-62
2024/01/05 07:17:14;;;;;;;1.05;0.40;;;20.40;41.60;;;;;;5002665;28;20061;-61
2024/01/05 07:19:40;;;;;;;0.80;0.30;;;20.40;41.50;;;;;;4998117;28;20092;-63
2024/01/05 07:22:07;;;;;;;1.73;0.60;;;20.40;41.50;;;;;;4998665;28;20031;-62
2024/01/05 07:24:37;;;;;;;1.25;0.40;;;20.40;41.50;;;;;;5009675;28;20017;-63
2024/01/05 07:27:06;;;;;;;1.15;0.50;;;20.40;41.50;;;;;;5008503;28;20437;-63
2024/01/05 07:29:32;;;;;;;1.10;0.45;;;20.40;41.50;;;;;;5001939;28;20040;-62
2024/01/05 07:31:58;;;;;;;1.83;0.60;;;20.40;41.50;;;;;;4998346;28;20026;-62
2024/01/05 07:34:23;;;;;;;1.25;0.47;;;20.40;41.50;;;;;;5000178;28;20074;-63
2024/01/05 07:36:50;;;;;;;1.35;0.60;;;20.40;41.50;;;;;;5004035;28;20088;-63
2024/01/05 07:39:16;;;;;;;1.30;0.43;;;20.40;41.50;;;;;;5001097;28;20030;-64
2024/01/05 07:41:42;;;;;;;0.75;0.40;;;20.40;41.50;;;;;;4996424;28;20171;-62
2024/01/05 07:44:08;;;;;;;2.35;0.50;;;20.40;41.50;;;;;;5003904;28;20099;-62
2024/01/05 07:46:41;;;;;;;0.55;0.40;;;20.40;41.50;;;;;;5005167;28;20109;-62
2024/01/05 07:49:07;;;;;;;0.82;0.40;;;20.40;41.50;;;;;;5006010;28;20021;-62
2024/01/05 07:51:32;;;;;;;2.63;0.65;;;20.40;41.50;;;;;;5006499;28;20445;-61
2024/01/05 07:53:58;;;;;;;1.38;0.50;;;20.40;41.50;;;;;;5005575;28;20050;-62
2024/01/05 07:56:24;;;;;;;1.60;0.57;;;20.40;41.50;;;;;;5009516;28;20422;-63
2024/01/05 07:58:50;;;;;;;1.02;0.52;;;20.40;41.60;;;;;;5002654;28;20072;-62
2024/01/05 08:01:19;;;;;;;0.70;0.40;;;20.40;41.50;;;;;;5000866;28;20088;-62
2024/01/05 08:03:45;;;;;;;1.02;0.60;;;20.40;41.50;;;;;;5000105;28;20095;-62
2024/01/05 08:06:15;;;;;;;2.00;0.65;;;20.40;41.50;;;;;;5005627;28;20029;-62
2024/01/05 08:08:46;;;;;;;1.95;0.70;;;20.40;41.50;;;;;;5001911;28;20369;-62
2024/01/05 08:11:13;;;;;;;1.20;0.63;;;20.40;41.50;;;;;;5006203;28;20116;-62
2024/01/05 08:13:42;;;;;;;1.58;0.50;;;20.40;41.50;;;;;;5002719;28;20115;-61
2024/01/05 08:16:08;;;;;;;2.10;0.82;;;20.40;41.40;;;;;;5004780;28;20416;-62
2024/01/05 08:18:37;;;;;;;1.83;0.60;;;20.40;41.40;;;;;;5000963;28;20062;-62
2024/01/05 08:21:03;;;;;;;2.30;0.80;;;20.50;41.30;;;;;;5011509;28;20413;-63
2024/01/05 08:23:30;;;;;;;1.63;0.60;;;20.50;41.30;;;;;;5005164;28;20081;-62
2024/01/05 08:25:56;;;;;;;1.77;0.50;;;20.50;41.20;;;;;;5007670;28;20045;-63
2024/01/05 08:28:23;;;;;;;1.05;0.40;;;20.50;41.10;;;;;;5006881;28;20361;-62
2024/01/05 08:30:49;;;;;;;2.00;0.80;;;20.50;41.00;;;;;;5000590;28;20026;-62
2024/01/05 08:33:14;;;;;;;1.40;0.50;;;20.60;40.90;;;;;;5005119;28;20104;-63
2024/01/05 08:35:40;;;;;;;2.55;0.90;;;20.60;40.80;;;;;;5001008;28;20038;-62
2024/01/05 08:38:06;;;;;;;2.03;0.60;;;20.60;40.80;;;;;;5005820;28;20037;-62
2024/01/05 08:40:32;;;;;;;1.63;0.70;;;20.70;40.80;;;;;;5009977;28;20358;-61
2024/01/05 08:42:58;;;;;;;4.45;1.15;;;20.70;40.80;;;;;;5007513;28;20041;-61
2024/01/05 08:45:24;;;;;;;2.75;0.63;;;20.70;40.80;;;;;;4999791;28;20030;-62
2024/01/05 08:47:50;;;;;;;1.42;0.75;;;20.70;40.80;;;;;;5010798;28;20397;-62
2024/01/05 08:50:19;;;;;;;1.75;0.70;;;20.80;40.90;;;;;;5007305;28;20034;-61
2024/01/05 08:52:45;;;;;;;1.77;0.70;;;20.80;41.00;;;;;;5000780;28;20358;-62
2024/01/05 08:55:15;;;;;;;2.47;0.82;;;20.80;40.90;;;;;;4999389;28;20092;-62
2024/01/05 08:57:41;;;;;;;2.42;0.70;;;20.80;40.90;;;;;;5003804;28;20364;-63
2024/01/05 09:00:10;;;;;;;1.85;0.85;;;20.80;40.90;;;;;;5005220;28;20117;-62
2024/01/05 09:02:39;;;;;;;1.30;0.50;;;20.80;40.80;;;;;;5002064;28;20037;-62
2024/01/05 09:05:05;;;;;;;1.38;0.77;;;20.90;40.70;;;;;;5000320;28;20040;-63
2024/01/05 09:07:32;;;;;;;2.05;0.60;;;20.90;40.60;;;;;;5001460;28;20919;-63
2024/01/05 09:09:58;;;;;;;1.30;0.57;;;20.90;40.50;;;;;;5001021;28;20026;-64
2024/01/05 09:12:24;;;;;;;0.80;0.40;;;21.00;40.40;;;;;;5000475;28;20041;-62
2024/01/05 09:14:50;;;;;;;1.05;0.40;;;21.00;40.30;;;;;;5000881;28;20039;-62
2024/01/05 09:17:16;;;;;;;1.00;0.28;;;21.00;40.30;;;;;;5000413;28;20133;-62
2024/01/05 09:19:42;;;;;;;1.17;0.40;;;21.00;40.20;;;;;;5001551;28;20022;-63
2024/01/05 09:22:08;;;;;;;0.70;0.30;;;21.00;40.10;;;;;;5012711;28;20041;-63
2024/01/05 09:24:35;;;;;;;1.20;0.50;;;21.00;40.10;;;;;;5007549;28;20024;-61
2024/01/05 09:27:04;;;;;;;1.02;0.40;;;21.00;40.00;;;;;;5002574;28;20026;-62
2024/01/05 09:29:33;;;;;;;0.85;0.32;;;21.10;40.00;;;;;;4998699;28;20030;-63
2024/01/05 09:32:00;;;;;;;0.63;0.20;;;21.10;40.00;;;;;;5004999;28;20022;-62
2024/01/05 09:34:25;;;;;;;0.63;0.38;;;21.10;40.00;;;;;;5013357;28;20042;-62
2024/01/05 09:36:53;;;;;;;0.70;0.40;;;21.10;40.00;;;;;;5004190;28;20117;-62
2024/01/05 09:39:19;;;;;;;1.27;0.38;;;21.10;39.90;;;;;;4994147;28;20117;-62
2024/01/05 09:41:48;;;;;;;1.25;0.40;;;21.10;39.90;;;;;;5006606;28;20105;-63
2024/01/05 09:44:16;;;;;;;0.80;0.20;;;21.10;39.80;;;;;;5013124;28;20030;-62
2024/01/05 09:46:43;;;;;;;0.35;0.30;;;21.10;39.70;;;;;;5005470;28;20334;-63
2024/01/05 09:49:09;;;;;;;0.20;0.15;;;21.20;39.70;;;;;;5004173;28;20045;-62
2024/01/05 09:51:35;;;;;;;0.40;0.25;;;21.20;39.60;;;;;;5003510;28;20040;-62
2024/01/05 09:54:02;;;;;;;0.55;0.20;;;21.20;39.50;;;;;;5005971;28;20141;-63
2024/01/05 09:56:28;;;;;;;0.57;0.20;;;21.20;39.40;;;;;;4985317;28;20026;-62
2024/01/05 09:58:55;;;;;;;0.50;0.20;;;21.20;39.40;;;;;;4995973;28;20034;-63
2024/01/05 10:01:30;;;;;;;0.20;0.17;;;21.20;39.30;;;;;;4999826;28;20113;-63
2024/01/05 10:03:58;;;;;;;0.45;0.10;;;21.20;39.20;;;;;;4994553;28;20042;-63
2024/01/05 10:06:25;;;;;;;0.10;0.10;;;21.20;39.20;;;;;;4997080;28;20037;-63
2024/01/05 10:09:00;;;;;;;0.28;0.20;;;21.30;39.20;;;;;;5006263;28;20034;-63
2024/01/05 10:11:30;;;;;;;0.30;0.10;;;21.30;39.00;;;;;;5005533;28;20122;-63
2024/01/05 10:14:05;;;;;;;0.20;0.10;;;21.30;39.00;;;;;;5012342;28;20041;-63
2024/01/05 10:16:36;;;;;;;0.82;0.20;;;21.30;39.00;;;;;;5005375;28;20049;-63
2024/01/05 10:19:21;;;;;;;0.20;0.15;;;21.30;38.90;;;;;;5004231;28;20104;-63
2024/01/05 10:21:48;;;;;;;0.25;0.20;;;21.30;38.80;;;;;;5000403;28;20089;-62
2024/01/05 10:24:26;;;;;;;0.73;0.20;;;21.30;38.80;;;;;;5003616;28;20147;-61
2024/01/05 10:27:05;;;;;;;0.75;0.25;;;21.30;38.90;;;;;;5005093;28;20030;-63
2024/01/05 10:29:32;;;;;;;0.28;0.10;;;21.30;39.00;;;;;;4996882;28;20035;-63
2024/01/05 10:32:18;;;;;;;0.25;0.10;;;21.30;39.00;;;;;;4998900;28;20100;-63
2024/01/05 10:34:48;;;;;;;0.28;0.15;;;21.30;39.00;;;;;;4993088;28;20049;-63
2024/01/05 10:37:16;;;;;;;0.45;0.17;;;21.30;39.10;;;;;;4997965;28;20393;-63
2024/01/05 10:39:48;;;;;;;0.65;0.10;;;21.30;39.00;;;;;;5013203;28;20088;-63
2024/01/05 10:42:18;;;;;;;0.10;0.00;;;21.40;39.10;;;;;;4995606;28;20061;-62
2024/01/05 10:44:45;;;;;;;0.40;0.10;;;21.30;39.00;;;;;;4996827;28;20030;-62
2024/01/05 10:47:15;;;;;;;0.38;0.10;;;21.40;39.00;;;;;;4996763;28;20026;-62
2024/01/05 10:49:51;;;;;;;0.10;0.10;;;21.30;38.90;;;;;;5009940;28;20108;-62
2024/01/05 10:52:30;;;;;;;0.52;0.45;;;21.40;38.90;;;;;;5010238;28;20033;-62
2024/01/05 10:55:02;;;;;;;0.55;0.20;;;21.40;38.90;;;;;;5002912;28;20153;-62
2024/01/05 10:57:29;;;;;;;0.10;0.10;;;21.40;38.90;;;;;;4996398;28;20120;-63
2024/01/05 10:59:56;;;;;;;0.10;0.08;;;21.40;38.90;;;;;;5011467;28;20092;-62
2024/01/05 11:02:34;;;;;;;0.40;0.20;;;21.40;38.80;;;;;;5007759;28;20402;-63
2024/01/05 11:05:10;;;;;;;0.50;0.20;;;21.30;38.70;;;;;;4994080;28;20446;-61
2024/01/05 11:07:40;;;;;;;0.20;0.10;;;21.40;38.80;;;;;;5000049;28;20034;-63
2024/01/05 11:10:24;;;;;;;1.75;0.20;;;21.40;38.80;;;;;;5000976;28;20113;-62
2024/01/05 11:13:23;;;;;;;0.98;0.10;;;21.40;38.80;;;;;;4997998;28;20026;-63
2024/01/05 11:16:06;;;;;;;0.10;0.10;;;21.40;38.70;;;;;;5011066;28;20184;-62
2024/01/05 11:18:46;;;;;;;0.40;0.13;;;21.40;38.70;;;;;;5004878;28;20030;-63
2024/01/05 11:21:19;;;;;;;0.38;0.10;;;21.40;38.70;;;;;;5012383;28;20030;-64
2024/01/05 11:23:47;;;;;;;0.32;0.20;;;21.40;38.70;;;;;;5005477;28;20100;-63
2024/01/05 11:26:35;;;;;;;1.63;0.17;;;21.40;38.70;;;;;;5009030;28;20034;-63
2024/01/05 11:29:02;;;;;;;0.20;0.10;;;21.40;38.60;;;;;;5001188;28;20030;-63
2024/01/05 11:31:46;;;;;;;0.20;0.10;;;21.40;38.60;;;;;;5007716;28;20057;-64
2024/01/05 11:34:34;;;;;;;0.47;0.10;;;21.40;38.60;;;;;;5004877;28;20374;-63
2024/01/05 11:37:04;;;;;;;0.60;0.10;;;21.40;38.70;;;;;;5002900;28;20438;-63
2024/01/05 11:39:48;;;;;;;0.20;0.20;;;21.40;38.80;;;;;;4997326;28;20030;-63
2024/01/05 11:42:35;;;;;;;0.65;0.20;;;21.40;38.80;;;;;;4998208;28;20030;-64
2024/01/05 11:45:11;;;;;;;0.30;0.20;;;21.40;38.80;;;;;;5001822;28;20455;-64
2024/01/05 11:47:44;;;;;;;0.17;0.15;;;21.40;38.80;;;;;;5013203;28;20029;-62
2024/01/05 11:50:30;;;;;;;0.30;0.20;;;21.40;38.80;;;;;;5015321;28;20041;-62
2024/01/05 11:53:06;;;;;;;0.30;0.20;;;21.40;38.90;;;;;;5006996;28;20095;-63
2024/01/05 11:55:39;;;;;;;0.35;0.25;;;21.40;38.90;;;;;;5001222;28;20049;-62
2024/01/05 11:58:08;;;;;;;0.40;0.20;;;21.40;38.90;;;;;;5001369;28;20031;-62
2024/01/05 12:00:37;;;;;;;0.50;0.20;;;21.40;39.00;;;;;;5009044;28;20022;-62
2024/01/05 12:03:04;;;;;;;0.43;0.28;;;21.40;39.00;;;;;;5007189;28;21480;-63
2024/01/05 12:05:33;;;;;;;0.75;0.38;;;21.40;39.00;;;;;;4995824;28;20326;-62
2024/01/05 12:08:00;;;;;;;0.55;0.20;;;21.40;39.00;;;;;;5004934;28;20463;-62
2024/01/05 12:10:27;;;;;;;0.50;0.10;;;21.40;39.00;;;;;;5003759;28;20072;-62
2024/01/05 12:12:57;;;;;;;0.82;0.20;;;21.40;39.00;;;;;;5002840;28;20026;-62
2024/01/05 12:15:24;;;;;;;1.77;0.20;;;21.40;39.00;;;;;;5006197;28;20053;-62
2024/01/05 12:18:00;;;;;;;0.10;0.10;;;21.40;38.90;;;;;;5003466;28;20034;-62
2024/01/05 12:20:26;;;;;;;1.65;0.20;;;21.40;38.90;;;;;;4997765;28;20041;-63
2024/01/05 12:22:52;;;;;;;1.55;0.20;;;21.40;38.80;;;;;;5001303;28;20026;-63
2024/01/05 12:25:17;;;;;;;0.50;0.20;;;21.40;38.70;;;;;;5006098;28;20571;-63
2024/01/05 12:27:43;;;;;;;0.32;0.13;;;21.40;39.20;;;;;;4998460;28;20124;-62
2024/01/05 12:30:12;;;;;;;0.20;0.10;;;21.40;38.60;;;;;;5014247;28;20033;-62
2024/01/05 12:32:38;;;;;;;0.60;0.10;;;21.40;38.50;;;;;;5014323;28;20117;-62
2024/01/05 12:35:05;;;;;;;0.10;0.10;;;21.40;38.50;;;;;;5014146;28;20117;-64
2024/01/05 12:37:34;;;;;;;0.60;0.10;;;21.40;38.40;;;;;;5012172;28;20033;-62
2024/01/05 12:40:10;;;;;;;0.40;0.20;;;21.40;38.40;;;;;;5001766;28;20034;-62
2024/01/05 12:42:39;;;;;;;0.20;0.10;;;21.40;38.30;;;;;;5008778;28;20113;-61
2024/01/05 12:45:06;;;;;;;1.05;0.20;;;21.40;38.30;;;;;;5009937;28;20073;-64
2024/01/05 12:47:35;;;;;;;0.10;0.10;;;21.40;38.30;;;;;;5004640;28;20477;-65
2024/01/05 12:50:03;;;;;;;0.10;0.10;;;21.40;38.40;;;;;;5003796;28;20026;-64